Time;durP1;ratioP1;P1;durP2;ratioP2;P2;SDS_P1;SDS_P2;PMS_P1;PMS_P2;Temp;Humidity;BMP_temperature;BMP_pressure;BME280_temperature;BME280_humidity;BME280_pressure;Samples;Min_cycle;Max_cycle;Signal;HPM_P1;HPM_P2
2024/02/29 00:00:15;;;;;;;26.05;18.13;;;8.30;91.70;;;;;;4970091;28;20101;-77
2024/02/29 00:02:40;;;;;;;25.50;18.45;;;8.30;91.80;;;;;;4956460;28;20030;-81
2024/02/29 00:05:07;;;;;;;25.77;17.20;;;8.30;91.90;;;;;;4955508;28;20031;-75
2024/02/29 00:07:32;;;;;;;26.95;18.40;;;8.30;92.00;;;;;;4977519;28;20042;-75
2024/02/29 00:09:58;;;;;;;25.38;18.73;;;8.30;92.00;;;;;;4974407;28;20174;-75
2024/02/29 00:12:24;;;;;;;26.85;18.75;;;8.40;91.90;;;;;;4977026;28;20057;-80
2024/02/29 00:14:51;;;;;;;24.23;18.25;;;8.40;91.90;;;;;;4968223;28;20031;-77
2024/02/29 00:17:17;;;;;;;24.55;17.70;;;8.40;92.00;;;;;;4975562;28;20469;-76
2024/02/29 00:19:43;;;;;;;23.20;17.05;;;8.40;92.10;;;;;;4975902;28;20027;-75
2024/02/29 00:22:09;;;;;;;23.45;16.90;;;8.40;92.00;;;;;;4974337;28;20042;-81
2024/02/29 00:24:35;;;;;;;22.50;17.02;;;8.30;92.20;;;;;;4976075;28;20104;-76
2024/02/29 00:27:01;;;;;;;23.92;17.98;;;8.40;92.30;;;;;;4977142;28;20468;-77
2024/02/29 00:29:28;;;;;;;24.23;17.73;;;8.40;92.30;;;;;;4970668;28;20035;-78
2024/02/29 00:31:54;;;;;;;25.30;18.15;;;8.40;92.20;;;;;;4976257;28;20026;-76
2024/02/29 00:34:19;;;;;;;26.20;18.35;;;8.30;92.40;;;;;;4972185;28;20042;-80
2024/02/29 00:36:45;;;;;;;24.35;18.52;;;8.30;92.60;;;;;;4975697;28;20505;-77
2024/02/29 00:39:11;;;;;;;22.58;17.77;;;8.40;92.70;;;;;;4976742;28;20504;-75
2024/02/29 00:41:37;;;;;;;22.27;19.00;;;8.40;92.80;;;;;;4982330;28;20054;-80
2024/02/29 00:44:03;;;;;;;25.08;18.63;;;8.30;92.90;;;;;;4983547;28;20097;-74
2024/02/29 00:46:28;;;;;;;24.88;19.15;;;8.40;93.10;;;;;;4979548;28;20022;-75
2024/02/29 00:48:54;;;;;;;24.75;18.63;;;8.40;93.10;;;;;;4982163;28;20084;-76
2024/02/29 00:51:20;;;;;;;25.42;19.48;;;8.40;93.20;;;;;;4976374;28;20042;-78
2024/02/29 00:53:45;;;;;;;27.25;19.83;;;8.40;93.40;;;;;;4982719;28;20209;-78
2024/02/29 00:56:11;;;;;;;27.42;20.17;;;8.40;93.70;;;;;;4982523;28;20041;-76
2024/02/29 00:58:37;;;;;;;28.95;20.15;;;8.40;93.90;;;;;;4983324;28;20034;-76
2024/02/29 01:01:03;;;;;;;24.92;20.40;;;8.40;93.90;;;;;;4977749;28;20061;-78
2024/02/29 01:03:28;;;;;;;26.35;21.17;;;8.40;94.10;;;;;;4980055;28;20746;-76
2024/02/29 01:05:54;;;;;;;28.80;21.58;;;8.40;94.20;;;;;;4968011;28;20043;-77
2024/02/29 01:08:20;;;;;;;27.70;21.23;;;8.30;94.30;;;;;;4963820;28;22107;-75
2024/02/29 01:10:47;;;;;;;27.70;21.45;;;8.40;94.40;;;;;;4972385;28;20080;-75
2024/02/29 01:13:12;;;;;;;28.25;21.65;;;8.30;94.50;;;;;;4983652;28;20023;-79
2024/02/29 01:15:38;;;;;;;28.67;22.23;;;8.30;94.60;;;;;;4976960;28;20030;-76
2024/02/29 01:18:05;;;;;;;29.33;23.38;;;8.30;94.70;;;;;;4984141;28;20080;-74
2024/02/29 01:20:32;;;;;;;28.20;22.17;;;8.30;94.80;;;;;;4982392;28;20025;-81
2024/02/29 01:22:58;;;;;;;29.20;21.40;;;8.30;94.90;;;;;;4982613;28;20562;-78
2024/02/29 01:25:23;;;;;;;28.30;22.02;;;8.30;94.90;;;;;;4980775;28;20034;-76
2024/02/29 01:27:50;;;;;;;30.00;22.95;;;8.30;94.90;;;;;;4977138;28;20616;-77
2024/02/29 01:30:16;;;;;;;32.28;23.58;;;8.30;94.90;;;;;;4982616;28;20028;-76
2024/02/29 01:32:42;;;;;;;27.33;22.58;;;8.30;95.00;;;;;;4976724;28;20026;-77
2024/02/29 01:35:09;;;;;;;26.55;21.02;;;8.30;94.90;;;;;;4982914;28;20022;-76
2024/02/29 01:37:35;;;;;;;29.17;21.98;;;8.20;95.10;;;;;;4982962;28;20034;-77
2024/02/29 01:40:00;;;;;;;28.90;22.85;;;8.30;95.10;;;;;;4984720;28;20689;-80
2024/02/29 01:42:26;;;;;;;28.67;21.83;;;8.30;95.10;;;;;;4985440;28;20045;-76
2024/02/29 01:44:56;;;;;;;29.35;24.02;;;8.30;95.00;;;;;;4981536;28;20563;-78
2024/02/29 01:47:23;;;;;;;30.70;22.98;;;8.30;95.10;;;;;;4983172;28;20092;-81
2024/02/29 01:49:49;;;;;;;36.08;24.05;;;8.30;95.10;;;;;;4982136;28;20034;-75
2024/02/29 01:52:16;;;;;;;27.42;21.52;;;8.30;95.20;;;;;;4972204;28;20066;-79
2024/02/29 01:54:42;;;;;;;27.52;22.27;;;8.30;95.30;;;;;;4954761;28;20042;-82
2024/02/29 01:57:09;;;;;;;28.25;23.15;;;8.20;95.30;;;;;;4980730;28;20775;-75
2024/02/29 01:59:38;;;;;;;33.83;22.55;;;8.30;95.40;;;;;;4978399;28;22391;-76
2024/02/29 02:02:05;;;;;;;27.42;22.75;;;8.30;95.50;;;;;;4979110;28;20038;-78
2024/02/29 02:04:31;;;;;;;30.50;22.55;;;8.30;95.50;;;;;;4975432;28;20022;-77
2024/02/29 02:06:57;;;;;;;26.30;22.00;;;8.30;95.50;;;;;;4979176;28;20504;-75
2024/02/29 02:09:24;;;;;;;27.50;21.65;;;8.30;95.50;;;;;;4976703;28;20084;-78
2024/02/29 02:11:49;;;;;;;27.13;21.52;;;8.30;95.60;;;;;;4976432;28;20050;-76
2024/02/29 02:14:16;;;;;;;30.75;22.30;;;8.30;95.50;;;;;;4979067;28;20342;-77
2024/02/29 02:16:42;;;;;;;28.55;22.33;;;8.30;95.60;;;;;;4964411;28;20043;-75
2024/02/29 02:19:15;;;;;;;27.67;21.67;;;8.40;95.60;;;;;;4960924;28;20022;-74
2024/02/29 02:21:42;;;;;;;27.75;21.92;;;8.40;95.50;;;;;;4976339;28;20732;-77
2024/02/29 02:24:08;;;;;;;28.60;21.35;;;8.30;95.60;;;;;;4979911;28;20011;-78
2024/02/29 02:26:34;;;;;;;31.73;22.58;;;8.40;95.60;;;;;;4964105;28;20271;-75
2024/02/29 02:29:02;;;;;;;24.80;20.42;;;8.40;95.60;;;;;;4959369;28;20046;-77
2024/02/29 02:31:29;;;;;;;27.45;20.38;;;8.40;95.50;;;;;;4975151;28;20137;-82
2024/02/29 02:33:55;;;;;;;32.13;21.33;;;8.40;95.60;;;;;;4990655;28;20073;-80
2024/02/29 02:36:21;;;;;;;26.08;19.98;;;8.40;95.50;;;;;;4990705;28;20109;-77
2024/02/29 02:38:47;;;;;;;29.95;20.40;;;8.40;95.60;;;;;;4984408;28;20409;-76
2024/02/29 02:41:12;;;;;;;25.90;19.90;;;8.40;95.60;;;;;;4981116;28;20060;-77
2024/02/29 02:43:38;;;;;;;31.13;21.05;;;8.40;95.70;;;;;;4985975;28;20483;-78
2024/02/29 02:46:04;;;;;;;26.05;20.27;;;8.50;95.70;;;;;;4982762;28;20033;-78
2024/02/29 02:48:29;;;;;;;24.70;18.85;;;8.50;95.60;;;;;;4979894;28;20608;-76
2024/02/29 02:50:55;;;;;;;27.38;20.52;;;8.50;95.60;;;;;;4977322;28;20038;-79
2024/02/29 02:53:20;;;;;;;25.08;18.33;;;8.50;95.70;;;;;;4977587;28;20569;-76
2024/02/29 02:55:46;;;;;;;24.50;19.67;;;8.60;95.60;;;;;;4974381;28;20032;-77
2024/02/29 02:58:12;;;;;;;25.13;19.67;;;8.60;95.50;;;;;;4981805;28;20046;-76
2024/02/29 03:00:37;;;;;;;26.45;19.35;;;8.60;95.60;;;;;;4979187;28;20428;-75
2024/02/29 03:03:03;;;;;;;24.38;19.83;;;8.60;95.60;;;;;;4976545;28;20379;-78
2024/02/29 03:05:29;;;;;;;24.65;18.70;;;8.60;95.50;;;;;;4978057;28;20091;-79
2024/02/29 03:07:55;;;;;;;22.58;18.85;;;8.60;95.60;;;;;;4977238;28;20022;-76
2024/02/29 03:10:21;;;;;;;22.13;18.75;;;8.60;95.60;;;;;;4977978;28;20034;-77
2024/02/29 03:12:48;;;;;;;24.35;19.77;;;8.60;95.50;;;;;;4975231;28;20353;-81
2024/02/29 03:15:15;;;;;;;21.05;18.52;;;8.60;95.50;;;;;;4973875;28;20038;-76
2024/02/29 03:17:41;;;;;;;22.88;19.25;;;8.60;95.50;;;;;;4980411;28;20034;-77
2024/02/29 03:20:12;;;;;;;27.65;18.88;;;8.60;95.50;;;;;;4977523;28;20933;-76
2024/02/29 03:22:39;;;;;;;24.23;17.63;;;8.70;95.50;;;;;;4979176;28;20018;-75
2024/02/29 03:25:05;;;;;;;22.90;19.02;;;8.70;95.30;;;;;;4981178;28;20050;-74
2024/02/29 03:27:30;;;;;;;22.27;18.60;;;8.70;95.20;;;;;;4979668;28;20042;-75
2024/02/29 03:29:58;;;;;;;22.45;16.95;;;8.70;95.20;;;;;;4977276;28;20037;-78
2024/02/29 03:32:23;;;;;;;25.20;16.38;;;8.80;95.20;;;;;;4979439;28;20065;-77
2024/02/29 03:34:49;;;;;;;22.33;17.13;;;8.80;95.10;;;;;;4976880;28;20050;-76
2024/02/29 03:37:15;;;;;;;20.77;16.23;;;8.80;95.10;;;;;;4959239;28;20568;-82
2024/02/29 03:39:40;;;;;;;21.48;16.33;;;8.70;95.10;;;;;;4959844;28;20034;-82
2024/02/29 03:42:06;;;;;;;20.77;15.82;;;8.80;95.20;;;;;;4974493;28;20049;-76
2024/02/29 03:44:32;;;;;;;21.52;16.27;;;8.80;95.10;;;;;;4978135;28;20022;-78
2024/02/29 03:46:57;;;;;;;20.98;16.65;;;8.80;95.10;;;;;;4976445;28;20053;-76
2024/02/29 03:49:23;;;;;;;24.02;16.38;;;8.80;95.10;;;;;;4976390;28;20030;-76
2024/02/29 03:51:49;;;;;;;21.95;16.83;;;8.80;95.20;;;;;;4979630;28;20176;-75
2024/02/29 03:54:15;;;;;;;22.33;15.50;;;8.80;95.20;;;;;;4974933;28;20010;-79
2024/02/29 03:56:40;;;;;;;21.50;16.55;;;8.70;95.30;;;;;;4961555;28;20608;-81
2024/02/29 03:59:06;;;;;;;18.98;16.10;;;8.80;95.30;;;;;;4952672;28;20033;-78
2024/02/29 04:01:31;;;;;;;21.63;15.60;;;8.80;95.40;;;;;;4971700;28;20716;-73
2024/02/29 04:03:57;;;;;;;25.88;17.25;;;8.80;95.60;;;;;;4977401;28;20057;-75
2024/02/29 04:06:22;;;;;;;25.77;17.02;;;8.80;95.70;;;;;;4976189;28;20042;-79
2024/02/29 04:08:48;;;;;;;25.13;17.50;;;8.80;95.80;;;;;;4972580;28;20027;-77
2024/02/29 04:11:14;;;;;;;20.48;17.02;;;8.80;95.80;;;;;;4976338;28;20121;-78
2024/02/29 04:13:39;;;;;;;22.30;17.27;;;8.70;96.00;;;;;;4978845;28;21218;-78
2024/02/29 04:16:05;;;;;;;23.58;17.20;;;8.70;96.10;;;;;;4976904;28;20038;-78
2024/02/29 04:18:31;;;;;;;26.58;16.98;;;8.70;96.20;;;;;;4977110;28;21121;-75
2024/02/29 04:20:56;;;;;;;22.00;16.92;;;8.70;96.30;;;;;;4978059;28;20034;-76
2024/02/29 04:23:22;;;;;;;24.45;17.05;;;8.70;96.30;;;;;;4977863;28;20030;-77
2024/02/29 04:25:48;;;;;;;23.58;16.63;;;8.70;96.30;;;;;;4984561;28;20027;-75
2024/02/29 04:28:17;;;;;;;22.63;16.45;;;8.70;96.30;;;;;;4977611;28;20049;-79
2024/02/29 04:30:43;;;;;;;22.20;16.67;;;8.70;96.30;;;;;;4978236;28;20786;-76
2024/02/29 04:33:08;;;;;;;23.70;17.50;;;8.70;96.40;;;;;;4977287;28;20104;-77
2024/02/29 04:35:34;;;;;;;25.17;16.88;;;8.70;96.40;;;;;;4977508;28;20044;-79
2024/02/29 04:38:00;;;;;;;21.65;16.65;;;8.70;96.50;;;;;;4977942;28;20711;-78
2024/02/29 04:40:29;;;;;;;26.52;17.48;;;8.70;96.50;;;;;;4976573;28;20054;-78
2024/02/29 04:42:55;;;;;;;24.23;17.00;;;8.70;96.50;;;;;;4978179;28;20653;-79
2024/02/29 04:45:23;;;;;;;24.10;16.40;;;8.70;96.50;;;;;;4976243;28;20043;-78
2024/02/29 04:47:49;;;;;;;21.80;16.70;;;8.80;96.60;;;;;;4973488;28;20018;-77
2024/02/29 04:50:15;;;;;;;21.15;15.20;;;8.70;96.50;;;;;;4976495;28;20784;-80
2024/02/29 04:52:40;;;;;;;20.45;16.02;;;8.70;96.60;;;;;;4975812;28;20030;-78
2024/02/29 04:55:06;;;;;;;26.45;17.25;;;8.70;96.50;;;;;;4977105;28;20054;-76
2024/02/29 04:57:32;;;;;;;22.60;16.77;;;8.70;96.50;;;;;;4977475;28;20065;-80
2024/02/29 04:59:57;;;;;;;21.75;15.38;;;8.80;96.50;;;;;;4975196;28;20034;-76
2024/02/29 05:02:23;;;;;;;21.75;15.98;;;8.80;96.50;;;;;;4977348;28;20081;-81
2024/02/29 05:04:49;;;;;;;23.67;15.82;;;8.80;96.50;;;;;;4974681;28;20081;-78
2024/02/29 05:07:14;;;;;;;22.05;16.05;;;8.80;96.50;;;;;;4975109;28;20145;-75
2024/02/29 05:09:40;;;;;;;22.23;16.67;;;8.80;96.40;;;;;;4979689;28;20042;-82
2024/02/29 05:12:06;;;;;;;21.92;16.67;;;8.80;96.40;;;;;;4955765;28;20726;-77
2024/02/29 05:14:31;;;;;;;21.05;15.63;;;8.80;96.40;;;;;;4958125;28;20110;-79
2024/02/29 05:16:58;;;;;;;23.60;16.50;;;8.90;96.30;;;;;;4983556;28;20025;-80
2024/02/29 05:19:23;;;;;;;22.35;16.35;;;8.80;96.30;;;;;;4988813;28;20465;-78
2024/02/29 05:21:51;;;;;;;19.70;15.50;;;8.80;96.30;;;;;;4986055;28;20029;-79
2024/02/29 05:24:17;;;;;;;20.20;16.00;;;8.90;96.40;;;;;;4981728;28;20022;-76
2024/02/29 05:26:44;;;;;;;22.70;16.55;;;8.80;96.40;;;;;;4981370;28;20035;-76
2024/02/29 05:29:09;;;;;;;24.90;16.30;;;8.80;96.50;;;;;;4985239;28;20026;-74
2024/02/29 05:31:36;;;;;;;19.60;15.60;;;8.80;96.60;;;;;;4981341;28;20116;-76
2024/02/29 05:34:02;;;;;;;22.08;14.95;;;8.80;96.60;;;;;;4980850;28;20039;-76
2024/02/29 05:36:27;;;;;;;22.77;14.73;;;8.80;96.60;;;;;;4980153;28;20177;-76
2024/02/29 05:38:54;;;;;;;21.52;15.70;;;8.80;96.70;;;;;;4980271;28;20022;-83
2024/02/29 05:41:20;;;;;;;21.40;16.63;;;8.80;96.70;;;;;;4978564;28;20703;-79
2024/02/29 05:43:46;;;;;;;20.40;15.73;;;8.80;96.80;;;;;;4981090;28;20018;-76
2024/02/29 05:46:12;;;;;;;22.00;15.70;;;8.80;96.80;;;;;;4978118;28;20096;-80
2024/02/29 05:48:38;;;;;;;20.20;16.50;;;8.80;96.90;;;;;;4980377;28;20045;-79
2024/02/29 05:51:07;;;;;;;20.58;16.05;;;8.70;97.00;;;;;;4973424;28;20034;-75
2024/02/29 05:53:33;;;;;;;20.80;16.17;;;8.70;97.10;;;;;;4978404;28;20056;-77
2024/02/29 05:55:58;;;;;;;22.35;16.77;;;8.60;97.10;;;;;;4980175;28;20073;-80
2024/02/29 05:58:30;;;;;;;24.40;17.73;;;8.60;97.20;;;;;;4980580;28;20026;-78
2024/02/29 06:00:55;;;;;;;21.40;16.95;;;8.60;97.30;;;;;;4967162;28;20093;-76
2024/02/29 06:03:21;;;;;;;24.02;18.85;;;8.60;97.40;;;;;;4959240;28;20826;-80
2024/02/29 06:05:47;;;;;;;22.42;19.02;;;8.60;97.30;;;;;;4966189;28;20030;-76
2024/02/29 06:08:12;;;;;;;24.40;19.73;;;8.60;97.40;;;;;;4980468;28;20037;-80
2024/02/29 06:10:38;;;;;;;23.85;20.15;;;8.60;97.50;;;;;;4977811;28;20059;-75
2024/02/29 06:13:04;;;;;;;24.33;20.85;;;8.60;97.40;;;;;;4978378;28;20935;-76
2024/02/29 06:15:29;;;;;;;24.85;20.48;;;8.60;97.50;;;;;;4972847;28;20061;-75
2024/02/29 06:17:56;;;;;;;26.00;22.00;;;8.60;97.60;;;;;;4979670;28;20053;-74
2024/02/29 06:20:21;;;;;;;26.77;22.33;;;8.60;97.60;;;;;;4976874;28;20062;-78
2024/02/29 06:22:48;;;;;;;26.73;21.83;;;8.60;97.60;;;;;;4978356;28;20484;-75
2024/02/29 06:25:13;;;;;;;26.13;21.60;;;8.50;97.60;;;;;;4977465;28;20133;-77
2024/02/29 06:27:40;;;;;;;29.65;23.45;;;8.50;97.70;;;;;;4974676;28;20033;-74
2024/02/29 06:30:07;;;;;;;27.15;23.05;;;8.60;97.70;;;;;;4977274;28;20408;-76
2024/02/29 06:32:32;;;;;;;30.33;23.30;;;8.50;97.60;;;;;;4976114;28;20501;-76
2024/02/29 06:34:58;;;;;;;28.77;22.83;;;8.60;97.60;;;;;;4967276;28;20034;-76
2024/02/29 06:37:24;;;;;;;29.13;23.75;;;8.50;97.50;;;;;;4979590;28;20042;-75
2024/02/29 06:39:50;;;;;;;29.65;23.52;;;8.50;97.60;;;;;;4976509;28;20050;-77
2024/02/29 06:42:16;;;;;;;30.98;24.35;;;8.50;97.60;;;;;;4978141;28;20531;-78
2024/02/29 06:44:42;;;;;;;31.38;24.52;;;8.50;97.60;;;;;;4975533;28;20041;-75
2024/02/29 06:47:07;;;;;;;29.48;24.67;;;8.50;97.70;;;;;;4973175;28;20446;-75
2024/02/29 06:49:33;;;;;;;30.00;24.95;;;8.50;97.70;;;;;;4974187;28;20026;-77
2024/02/29 06:51:58;;;;;;;33.65;25.77;;;8.40;97.70;;;;;;4973473;28;20142;-75
2024/02/29 06:54:24;;;;;;;33.30;26.35;;;8.50;97.80;;;;;;4976469;28;20157;-77
2024/02/29 06:56:50;;;;;;;29.77;23.67;;;8.50;97.80;;;;;;4974230;28;20030;-74
2024/02/29 06:59:15;;;;;;;31.05;24.95;;;8.50;97.80;;;;;;4975880;28;20022;-78
2024/02/29 07:01:41;;;;;;;32.92;26.30;;;8.50;97.80;;;;;;4963300;28;20046;-78
2024/02/29 07:04:07;;;;;;;30.38;25.98;;;8.50;97.80;;;;;;4953113;28;20185;-75
2024/02/29 07:06:34;;;;;;;36.20;26.75;;;8.50;97.90;;;;;;4969074;28;20039;-77
2024/02/29 07:09:01;;;;;;;30.25;25.25;;;8.50;97.80;;;;;;4977462;28;20344;-77
2024/02/29 07:11:27;;;;;;;29.25;25.13;;;8.50;97.90;;;;;;4970904;28;20433;-78
2024/02/29 07:13:53;;;;;;;27.60;23.80;;;8.50;97.90;;;;;;4988163;28;20532;-76
2024/02/29 07:16:20;;;;;;;31.25;24.15;;;8.50;97.90;;;;;;4977133;28;20032;-73
2024/02/29 07:18:46;;;;;;;28.80;23.67;;;8.50;97.90;;;;;;4974438;28;20030;-79
2024/02/29 07:21:11;;;;;;;28.92;21.95;;;8.50;97.90;;;;;;4977241;28;20109;-76
2024/02/29 07:23:37;;;;;;;25.90;21.67;;;8.50;98.00;;;;;;4970475;28;20102;-76
2024/02/29 07:26:03;;;;;;;25.88;21.55;;;8.50;97.90;;;;;;4976736;28;20138;-75
2024/02/29 07:28:29;;;;;;;25.33;19.98;;;8.50;97.90;;;;;;4972961;28;20170;-76
2024/02/29 07:30:56;;;;;;;26.85;20.13;;;8.60;97.80;;;;;;4972746;28;20294;-76
2024/02/29 07:33:22;;;;;;;24.15;20.90;;;8.50;97.80;;;;;;4973019;28;20030;-75
2024/02/29 07:35:48;;;;;;;26.58;20.00;;;8.60;97.80;;;;;;4969323;28;20545;-76
2024/02/29 07:38:14;;;;;;;23.92;20.15;;;8.50;97.70;;;;;;4953981;28;20027;-74
2024/02/29 07:40:40;;;;;;;25.02;21.08;;;8.50;97.70;;;;;;4965417;28;20029;-75
2024/02/29 07:43:05;;;;;;;27.75;21.52;;;8.50;97.70;;;;;;4972718;28;20287;-74
2024/02/29 07:45:31;;;;;;;27.08;20.73;;;8.50;97.70;;;;;;4969806;28;20026;-77
2024/02/29 07:47:57;;;;;;;27.58;21.75;;;8.60;97.70;;;;;;4974042;28;20031;-76
2024/02/29 07:50:23;;;;;;;29.98;23.08;;;8.50;97.70;;;;;;4972805;28;20279;-76
2024/02/29 07:52:49;;;;;;;27.63;22.17;;;8.50;97.70;;;;;;4972744;28;20475;-76
2024/02/29 07:55:16;;;;;;;29.25;24.42;;;8.50;97.80;;;;;;4977914;28;20061;-75
2024/02/29 07:57:42;;;;;;;27.63;23.33;;;8.60;97.80;;;;;;4977036;28;20030;-77
2024/02/29 08:00:12;;;;;;;29.83;23.38;;;8.50;97.80;;;;;;4974748;28;20799;-77
2024/02/29 08:02:42;;;;;;;29.52;23.73;;;8.50;97.80;;;;;;4972972;28;20018;-75
2024/02/29 08:05:08;;;;;;;30.67;24.70;;;8.60;97.80;;;;;;4970492;28;20117;-75
2024/02/29 08:07:34;;;;;;;27.98;22.75;;;8.50;97.80;;;;;;4974103;28;20447;-76
2024/02/29 08:10:01;;;;;;;27.20;22.48;;;8.60;97.90;;;;;;4976008;28;20397;-74
2024/02/29 08:12:27;;;;;;;26.23;22.25;;;8.60;97.90;;;;;;4972659;28;20389;-75
2024/02/29 08:14:53;;;;;;;29.23;22.55;;;8.60;97.80;;;;;;4970747;28;20277;-74
2024/02/29 08:17:18;;;;;;;30.08;21.83;;;8.60;97.80;;;;;;4976986;28;20034;-73
2024/02/29 08:19:44;;;;;;;31.13;23.48;;;8.60;97.70;;;;;;4973602;28;20029;-74
2024/02/29 08:22:10;;;;;;;25.95;20.70;;;8.60;97.80;;;;;;4976131;28;20044;-75
2024/02/29 08:24:36;;;;;;;25.92;21.38;;;8.60;97.70;;;;;;4977417;28;20073;-73
2024/02/29 08:27:03;;;;;;;25.35;20.45;;;8.70;97.70;;;;;;4976107;28;20030;-74
2024/02/29 08:29:29;;;;;;;25.35;19.98;;;8.70;97.70;;;;;;4976167;28;20491;-74
2024/02/29 08:31:54;;;;;;;25.80;20.52;;;8.70;97.70;;;;;;4974500;28;20429;-75
2024/02/29 08:34:20;;;;;;;25.70;20.92;;;8.70;97.80;;;;;;4974142;28;21529;-74
2024/02/29 08:36:45;;;;;;;24.20;20.50;;;8.70;97.90;;;;;;4974673;28;20085;-75
2024/02/29 08:39:11;;;;;;;27.33;22.40;;;8.80;97.90;;;;;;4975969;28;20049;-74
2024/02/29 08:41:37;;;;;;;26.63;21.33;;;8.70;97.80;;;;;;4968102;28;20088;-75
2024/02/29 08:44:03;;;;;;;24.13;20.42;;;8.70;97.80;;;;;;4967729;28;20026;-77
2024/02/29 08:46:28;;;;;;;24.95;21.65;;;8.70;97.90;;;;;;4954024;28;20037;-75
2024/02/29 08:48:55;;;;;;;26.83;21.45;;;8.80;97.80;;;;;;4951017;28;20035;-75
2024/02/29 08:51:20;;;;;;;25.98;21.55;;;8.80;97.80;;;;;;4965706;28;20035;-75
2024/02/29 08:53:46;;;;;;;27.80;24.15;;;8.80;97.80;;;;;;4973493;28;20033;-73
2024/02/29 08:56:11;;;;;;;30.25;25.55;;;8.80;97.80;;;;;;4969549;28;20038;-74
2024/02/29 08:58:37;;;;;;;28.80;24.42;;;8.80;97.70;;;;;;4973141;28;20022;-73
2024/02/29 09:01:03;;;;;;;29.67;24.98;;;8.90;97.80;;;;;;4971705;28;20038;-76
2024/02/29 09:03:29;;;;;;;28.38;24.45;;;8.90;97.70;;;;;;4980072;28;20319;-76
2024/02/29 09:05:55;;;;;;;32.65;26.15;;;8.80;97.60;;;;;;4973537;28;20027;-75
2024/02/29 09:08:20;;;;;;;33.72;26.77;;;8.80;97.60;;;;;;4977007;28;20038;-74
2024/02/29 09:10:46;;;;;;;32.00;26.70;;;8.80;97.60;;;;;;4966768;28;20091;-74
2024/02/29 09:13:12;;;;;;;30.63;24.45;;;8.80;97.70;;;;;;4958907;28;20019;-74
2024/02/29 09:15:37;;;;;;;28.85;23.63;;;8.80;97.60;;;;;;4966158;28;20350;-75
2024/02/29 09:18:04;;;;;;;29.58;24.42;;;8.80;97.70;;;;;;4979163;28;20473;-74
2024/02/29 09:20:29;;;;;;;31.27;24.55;;;8.80;97.60;;;;;;4974711;28;20248;-75
2024/02/29 09:22:55;;;;;;;30.58;25.05;;;8.90;97.80;;;;;;4978788;28;20408;-78
2024/02/29 09:25:21;;;;;;;31.33;24.30;;;8.90;97.60;;;;;;4979358;28;20041;-75
2024/02/29 09:27:47;;;;;;;30.98;24.58;;;8.90;97.60;;;;;;4978416;28;20031;-75
2024/02/29 09:30:13;;;;;;;28.23;24.10;;;9.00;97.60;;;;;;4971192;28;20038;-76
2024/02/29 09:32:39;;;;;;;30.92;25.10;;;9.00;97.50;;;;;;4978580;28;20251;-74
2024/02/29 09:35:05;;;;;;;31.02;26.10;;;9.00;97.40;;;;;;4976461;28;20411;-74
2024/02/29 09:37:31;;;;;;;30.90;26.63;;;9.00;97.40;;;;;;4977229;28;20458;-74
2024/02/29 09:39:57;;;;;;;30.95;26.75;;;9.00;97.40;;;;;;4977939;28;20374;-75
2024/02/29 09:42:26;;;;;;;32.83;26.88;;;9.00;97.50;;;;;;4978325;28;20413;-77
2024/02/29 09:44:52;;;;;;;29.92;25.25;;;9.00;97.40;;;;;;4979413;28;20030;-78
2024/02/29 09:47:20;;;;;;;28.17;25.08;;;9.00;97.30;;;;;;4960818;28;20342;-75
2024/02/29 09:49:47;;;;;;;27.15;21.98;;;9.10;97.30;;;;;;4953285;28;20058;-76
2024/02/29 09:52:13;;;;;;;25.90;22.60;;;9.10;97.20;;;;;;4975962;28;20033;-76
2024/02/29 09:54:42;;;;;;;26.35;21.52;;;9.10;97.10;;;;;;4974411;28;20336;-73
2024/02/29 09:57:09;;;;;;;27.23;23.02;;;9.10;97.00;;;;;;4978638;28;20034;-74
2024/02/29 09:59:37;;;;;;;26.38;22.83;;;9.10;97.10;;;;;;4977801;28;20033;-72
2024/02/29 10:02:05;;;;;;;24.83;20.45;;;9.10;97.00;;;;;;4976998;28;20060;-78
2024/02/29 10:04:31;;;;;;;26.08;20.70;;;9.10;97.10;;;;;;4975770;28;20710;-76
2024/02/29 10:06:57;;;;;;;22.73;19.65;;;9.10;97.10;;;;;;4979717;28;20123;-78
2024/02/29 10:09:23;;;;;;;22.38;18.98;;;9.20;97.10;;;;;;4978200;28;20424;-74
2024/02/29 10:11:48;;;;;;;24.38;18.98;;;9.20;96.90;;;;;;4974562;28;20649;-77
2024/02/29 10:14:29;;;;;;;21.25;17.30;;;9.30;97.00;;;;;;4975216;28;20031;-74
2024/02/29 10:16:56;;;;;;;20.98;17.48;;;9.30;96.80;;;;;;4974449;28;20050;-75
2024/02/29 10:19:23;;;;;;;21.40;18.25;;;9.30;96.80;;;;;;4977198;28;20027;-80
2024/02/29 10:21:50;;;;;;;19.63;17.13;;;9.40;96.70;;;;;;4972985;28;20039;-77
2024/02/29 10:24:18;;;;;;;18.35;16.30;;;9.50;96.70;;;;;;4976869;28;20579;-76
2024/02/29 10:26:44;;;;;;;20.75;17.20;;;9.50;96.50;;;;;;4968964;28;20034;-75
2024/02/29 10:29:10;;;;;;;19.48;16.52;;;9.40;96.50;;;;;;4981644;28;20465;-75
2024/02/29 10:31:36;;;;;;;20.40;16.13;;;9.40;96.50;;;;;;4988275;28;20030;-77
2024/02/29 10:34:02;;;;;;;20.20;17.38;;;9.40;96.60;;;;;;4978085;28;20052;-75
2024/02/29 10:36:30;;;;;;;19.48;16.70;;;9.40;96.60;;;;;;4974369;28;20081;-77
2024/02/29 10:38:57;;;;;;;20.23;17.25;;;9.40;96.50;;;;;;4978656;28;20026;-79
2024/02/29 10:41:27;;;;;;;20.25;17.35;;;9.40;96.50;;;;;;4975707;28;20050;-76
2024/02/29 10:43:54;;;;;;;20.27;18.08;;;9.40;96.50;;;;;;4975028;28;20109;-77
2024/02/29 10:46:20;;;;;;;23.30;19.13;;;9.40;96.40;;;;;;4974805;28;20022;-76
2024/02/29 10:49:35;;;;;;;23.42;20.15;;;9.40;96.60;;;;;;4993813;28;20038;-77
2024/02/29 10:52:07;;;;;;;25.65;22.92;;;9.40;96.50;;;;;;4950842;28;22449;-81
2024/02/29 10:54:48;;;;;;;28.75;24.38;;;9.50;96.50;;;;;;4950493;28;20046;-76
2024/02/29 10:57:18;;;;;;;29.08;23.50;;;9.50;96.40;;;;;;4967631;28;20040;-77
2024/02/29 10:59:53;;;;;;;25.88;21.55;;;9.50;96.60;;;;;;4973701;28;20035;-77
2024/02/29 11:02:19;;;;;;;23.08;19.73;;;9.50;96.50;;;;;;4976560;28;20026;-78
2024/02/29 11:04:46;;;;;;;22.20;19.23;;;9.50;96.40;;;;;;4984701;28;20162;-76
2024/02/29 11:07:12;;;;;;;20.88;16.85;;;9.60;96.70;;;;;;4977073;28;20379;-79
2024/02/29 11:09:39;;;;;;;21.73;17.52;;;9.60;96.50;;;;;;4976480;28;20410;-76
2024/02/29 11:12:08;;;;;;;19.33;16.30;;;9.60;96.60;;;;;;4977253;28;20060;-77
2024/02/29 11:14:37;;;;;;;16.33;13.70;;;9.70;96.50;;;;;;4971827;28;20103;-78
2024/02/29 11:17:04;;;;;;;14.88;12.90;;;9.60;96.30;;;;;;4972703;28;20567;-75
2024/02/29 11:19:30;;;;;;;15.20;12.60;;;9.50;96.30;;;;;;4973711;28;20104;-75
2024/02/29 11:21:56;;;;;;;14.82;12.75;;;9.50;96.40;;;;;;4974866;28;20516;-77
2024/02/29 11:24:22;;;;;;;18.63;14.93;;;9.50;96.40;;;;;;4976424;28;20148;-77
2024/02/29 11:26:55;;;;;;;18.10;15.10;;;9.40;96.50;;;;;;4977389;28;20034;-76
2024/02/29 11:29:24;;;;;;;16.45;14.40;;;9.50;96.60;;;;;;4979323;28;20066;-78
2024/02/29 11:31:54;;;;;;;16.83;14.23;;;9.50;96.70;;;;;;4969775;28;20065;-76
2024/02/29 11:34:21;;;;;;;16.80;14.32;;;9.40;96.80;;;;;;4971230;28;20117;-75
2024/02/29 11:36:48;;;;;;;18.88;13.63;;;9.50;96.60;;;;;;4967539;28;20084;-75
2024/02/29 11:39:18;;;;;;;16.58;14.20;;;9.50;96.70;;;;;;4958563;28;20549;-77
2024/02/29 11:41:44;;;;;;;16.67;14.05;;;9.60;96.80;;;;;;4966544;28;20101;-76
2024/02/29 11:44:10;;;;;;;17.77;14.88;;;9.50;96.40;;;;;;4969255;28;20033;-76
2024/02/29 11:46:44;;;;;;;18.70;15.70;;;9.50;96.40;;;;;;4955867;28;20043;-75
2024/02/29 11:49:13;;;;;;;18.02;15.73;;;9.50;96.30;;;;;;4972564;28;20356;-78
2024/02/29 11:51:40;;;;;;;19.27;16.65;;;9.50;96.40;;;;;;4972757;28;20489;-78
2024/02/29 11:54:06;;;;;;;19.83;16.23;;;9.40;96.30;;;;;;4973797;28;20022;-76
2024/02/29 11:56:31;;;;;;;18.08;14.27;;;9.60;96.40;;;;;;4973385;28;20049;-75
2024/02/29 11:59:02;;;;;;;19.10;16.00;;;9.60;96.30;;;;;;4968082;28;20034;-75
2024/02/29 12:01:28;;;;;;;16.83;14.25;;;9.60;96.30;;;;;;4974725;28;20042;-77
2024/02/29 12:03:53;;;;;;;16.95;14.40;;;9.60;96.10;;;;;;4973272;28;20246;-76
2024/02/29 12:06:20;;;;;;;15.80;12.90;;;9.60;96.10;;;;;;4972414;28;20041;-76
2024/02/29 12:08:46;;;;;;;18.27;12.63;;;9.70;96.10;;;;;;4973192;28;20547;-75
2024/02/29 12:11:12;;;;;;;15.85;12.77;;;9.70;96.00;;;;;;4987683;28;20046;-76
2024/02/29 12:13:38;;;;;;;16.60;13.93;;;9.80;96.00;;;;;;4971418;28;20027;-77
2024/02/29 12:16:05;;;;;;;16.70;12.63;;;9.80;95.90;;;;;;4970581;28;20093;-77
2024/02/29 12:18:34;;;;;;;16.38;13.27;;;9.70;96.00;;;;;;4976572;28;20121;-76
2024/02/29 12:21:00;;;;;;;17.70;14.10;;;9.70;96.00;;;;;;4974631;28;20530;-74
2024/02/29 12:23:30;;;;;;;18.55;15.02;;;9.80;96.10;;;;;;4979100;28;20022;-76
2024/02/29 12:26:10;;;;;;;18.40;14.57;;;9.90;95.90;;;;;;4968966;28;20113;-76
2024/02/29 12:28:36;;;;;;;19.63;14.23;;;9.80;95.70;;;;;;4949954;28;20469;-76
2024/02/29 12:31:03;;;;;;;20.65;16.13;;;9.90;95.80;;;;;;4966454;28;20049;-74